Погода Двойнойна неделю

Ростовская область, Россия

22 - 28 мая
  • 22мая
    Сегодня
    +11°
    +26°
    Ясно и безоблачно
    ВремяПогодаТемператураВлажностьДавлениеВетер, м/сВероятность осадков
    00:00Ясно и безоблачно+14°C71 %758 мм1.8 м/с2 %
    03:00Ясно и безоблачно+12°C77 %758 мм1.6 м/с2 %
    06:00Ясно и безоблачно+13°C70 %758 мм1.5 м/с2 %
    09:00Ясно и безоблачно+21°C46 %759 мм2.8 м/с2 %
    12:00Ясно и безоблачно+25°C26 %758 мм3.6 м/с2 %
    15:00Ясно и безоблачно+26°C23 %757 мм4.2 м/с2 %
    18:00Ясно и безоблачно+25°C31 %756 мм2.9 м/с2 %
    21:00Ясно и безоблачно+18°C43 %756 мм1.9 м/с2 %
  • 23мая
    Четверг
    +14°
    +27°
    Ясно и безоблачно
    ВремяПогодаТемператураВлажностьДавлениеВетер, м/сВероятность осадков
    00:00Ясно и безоблачно+15°C55 %756 мм1.9 м/с2 %
    03:00Ясно и безоблачно+13°C56 %756 мм1.6 м/с2 %
    06:00Ясно и безоблачно+14°C60 %757 мм1.7 м/с2 %
    09:00Ясно и безоблачно+20°C46 %757 мм3.6 м/с2 %
    12:00Ясно и безоблачно+24°C27 %757 мм4.6 м/с2 %
    15:00Ясно и безоблачно+25°C27 %756 мм4.7 м/с2 %
    18:00Ясно и безоблачно+26°C28 %755 мм3.1 м/с2 %
    21:00Ясно и безоблачно+18°C44 %756 мм3.6 м/с2 %
  • 24мая
    Пятница
    +12°
    +25°
    Ясно и безоблачно
    ВремяПогодаТемператураВлажностьДавлениеВетер, м/сВероятность осадков
    00:00Ясно и безоблачно+17°C39 %756 мм3.6 м/с2 %
    03:00Ясно и безоблачно+15°C47 %757 мм3.0 м/с2 %
    06:00Ясно и безоблачно+16°C65 %758 мм3.8 м/с2 %
    09:00Ясно и безоблачно+20°C57 %759 мм6.0 м/с2 %
    12:00Ясно и безоблачно+24°C38 %759 мм6.4 м/с2 %
    15:00Ясно и безоблачно+25°C31 %759 мм6.9 м/с3 %
    18:00Ясно и безоблачно+23°C29 %759 мм5.6 м/с2 %
    21:00Ясно и безоблачно+19°C25 %761 мм6.2 м/с2 %
  • 25мая
    Суббота
    +12°
    +23°
    Облачно с прояснениями
    ВремяПогодаТемператураВлажностьДавлениеВетер, м/сВероятность осадков
    00:00Ясно и безоблачно+16°C25 %762 мм6.1 м/с2 %
    03:00Ясно и безоблачно+13°C27 %762 мм5.3 м/с2 %
    06:00Ясно и безоблачно+13°C35 %762 мм5.3 м/с2 %
    09:00Ясно и безоблачно+17°C34 %763 мм7.0 м/с2 %
    12:00Ясно и безоблачно+21°C29 %762 мм7.2 м/с2 %
    15:00Облачно с прояснениями+22°C27 %761 мм6.6 м/с2 %
    18:00Облачно с прояснениями+21°C23 %760 мм5.3 м/с2 %
    21:00Пасмурно, сплошная облачность+19°C30 %760 мм5.3 м/с2 %
Мы используем cookies
Соглашаюсь